Time;durP1;ratioP1;P1;durP2;ratioP2;P2;SDS_P1;SDS_P2;PMS_P1;PMS_P2;Temp;Humidity;BMP_temperature;BMP_pressure;BME280_temperature;BME280_humidity;BME280_pressure;Samples;Min_cycle;Max_cycle;Signal;HPM_P1;HPM_P2
2023/06/25 00:02:08;;;;;;;5.53;4.50;;;20.40;99.90;;;;;;5051753;28;20476;-83
2023/06/25 00:04:35;;;;;;;5.50;4.67;;;20.30;99.90;;;;;;5040943;28;20467;-83
2023/06/25 00:07:03;;;;;;;10.23;5.90;;;20.30;99.90;;;;;;5040404;28;20969;-85
2023/06/25 00:09:30;;;;;;;6.30;4.37;;;20.30;99.90;;;;;;5060377;28;20823;-84
2023/06/25 00:11:57;;;;;;;6.10;4.57;;;20.30;99.90;;;;;;5060138;28;20488;-83
2023/06/25 00:14:25;;;;;;;6.67;5.30;;;20.30;99.90;;;;;;5060421;28;20543;-84
2023/06/25 00:16:57;;;;;;;7.30;5.20;;;20.30;99.90;;;;;;5040336;28;20456;-83
2023/06/25 00:19:26;;;;;;;6.47;5.73;;;20.30;99.90;;;;;;5047173;28;20490;-84
2023/06/25 00:21:53;;;;;;;7.63;5.40;;;20.20;99.90;;;;;;5060170;28;20468;-82
2023/06/25 00:24:22;;;;;;;9.67;5.80;;;20.20;99.90;;;;;;5046930;28;20889;-84
2023/06/25 00:26:49;;;;;;;7.60;4.70;;;20.20;99.90;;;;;;5057579;28;20475;-83
2023/06/25 00:29:16;;;;;;;6.90;4.70;;;20.10;99.90;;;;;;5046694;28;20484;-84
2023/06/25 00:31:44;;;;;;;5.43;4.90;;;20.10;99.90;;;;;;5042625;28;20584;-83
2023/06/25 00:34:11;;;;;;;6.63;5.00;;;20.10;99.90;;;;;;5057749;28;20949;-83
2023/06/25 00:36:40;;;;;;;8.53;4.80;;;20.00;99.90;;;;;;5055809;28;20460;-84
2023/06/25 00:39:15;;;;;;;6.63;5.27;;;20.00;99.90;;;;;;5060203;28;20524;-83
2023/06/25 00:41:44;;;;;;;5.57;4.30;;;20.00;99.90;;;;;;5056329;28;20467;-84
2023/06/25 00:44:11;;;;;;;5.97;4.80;;;20.00;99.90;;;;;;5049260;28;20519;-84
2023/06/25 00:46:38;;;;;;;5.70;4.67;;;19.90;99.90;;;;;;5060529;28;20477;-85
2023/06/25 00:49:06;;;;;;;5.90;4.90;;;19.90;99.90;;;;;;5057723;28;20484;-84
2023/06/25 00:51:35;;;;;;;9.07;5.20;;;19.90;1.00;;;;;;5046433;28;20490;-84
2023/06/25 00:54:05;;;;;;;7.10;5.37;;;19.90;99.90;;;;;;5054223;28;20460;-82
2023/06/25 00:56:32;;;;;;;6.93;5.07;;;19.90;99.90;;;;;;5059841;28;20827;-84
2023/06/25 00:59:02;;;;;;;7.33;5.00;;;19.90;1.00;;;;;;5049323;28;20456;-85
2023/06/25 01:01:37;;;;;;;9.73;4.73;;;19.80;99.90;;;;;;5044559;28;20474;-85
2023/06/25 01:04:11;;;;;;;6.40;5.30;;;19.80;1.00;;;;;;5044267;28;20486;-83
2023/06/25 01:06:47;;;;;;;4.73;4.20;;;19.80;99.90;;;;;;5051505;28;20456;-84
2023/06/25 01:09:15;;;;;;;7.13;5.13;;;19.80;1.00;;;;;;5050715;28;20449;-83
2023/06/25 01:11:41;;;;;;;7.50;5.07;;;19.80;99.90;;;;;;5040419;28;20495;-82
2023/06/25 01:14:09;;;;;;;6.43;4.90;;;19.70;1.00;;;;;;5040280;28;20880;-84
2023/06/25 01:16:36;;;;;;;8.20;5.27;;;19.70;1.00;;;;;;5039724;28;20457;-83
2023/06/25 01:19:03;;;;;;;7.30;5.20;;;19.70;99.90;;;;;;5050093;28;20475;-81
2023/06/25 01:21:32;;;;;;;7.87;5.77;;;19.70;99.90;;;;;;5055059;28;20555;-84
2023/06/25 01:24:01;;;;;;;5.70;5.00;;;19.70;99.90;;;;;;5061430;28;20458;-82
2023/06/25 01:26:27;;;;;;;6.10;5.07;;;19.60;1.00;;;;;;5047254;28;20524;-81
2023/06/25 01:28:55;;;;;;;7.23;5.07;;;19.60;1.00;;;;;;5039140;28;20459;-82
2023/06/25 01:31:24;;;;;;;6.90;5.47;;;19.60;1.00;;;;;;5038654;28;20519;-80
2023/06/25 01:33:51;;;;;;;7.57;5.20;;;19.60;1.00;;;;;;5057418;28;20501;-82
2023/06/25 01:36:18;;;;;;;7.00;6.03;;;19.50;1.00;;;;;;5058228;28;20459;-82
2023/06/25 01:38:45;;;;;;;6.80;5.63;;;19.50;1.00;;;;;;5059641;28;20452;-83
2023/06/25 01:41:13;;;;;;;7.40;5.30;;;19.50;1.00;;;;;;5053543;28;20563;-84
2023/06/25 01:43:40;;;;;;;5.63;5.00;;;19.50;1.00;;;;;;5054646;28;20480;-83
2023/06/25 01:46:07;;;;;;;7.57;5.90;;;19.50;1.00;;;;;;5039154;28;20444;-84
2023/06/25 01:48:34;;;;;;;7.10;5.10;;;19.50;1.00;;;;;;5039825;28;20441;-81
2023/06/25 01:51:01;;;;;;;6.40;5.60;;;19.50;1.00;;;;;;5042412;28;20555;-80
2023/06/25 01:53:28;;;;;;;5.90;4.70;;;19.50;1.00;;;;;;5050917;28;20452;-81
2023/06/25 01:55:58;;;;;;;6.17;5.17;;;19.40;1.00;;;;;;5059446;28;20483;-81
2023/06/25 01:58:26;;;;;;;7.03;5.50;;;19.40;1.00;;;;;;5057792;28;20520;-80
2023/06/25 02:00:53;;;;;;;5.80;5.20;;;19.40;1.00;;;;;;5059811;28;20548;-81
2023/06/25 02:03:20;;;;;;;10.10;5.80;;;19.40;1.00;;;;;;5060587;28;20547;-80
2023/06/25 02:05:47;;;;;;;6.87;5.60;;;19.30;1.00;;;;;;5044689;28;20961;-81
2023/06/25 02:08:14;;;;;;;6.97;5.70;;;19.30;1.00;;;;;;5055095;28;20456;-80
2023/06/25 02:10:41;;;;;;;9.03;4.90;;;19.30;1.00;;;;;;5064717;28;20489;-80
2023/06/25 02:13:08;;;;;;;6.50;5.13;;;19.30;1.00;;;;;;5048115;28;20575;-79
2023/06/25 02:15:36;;;;;;;8.30;6.00;;;19.30;1.00;;;;;;5045778;28;20895;-80
2023/06/25 02:18:03;;;;;;;7.50;5.00;;;19.20;1.00;;;;;;5046622;28;20455;-80
2023/06/25 02:20:30;;;;;;;7.53;5.17;;;19.20;1.00;;;;;;5045954;28;20522;-80
2023/06/25 02:22:57;;;;;;;5.73;4.53;;;19.20;1.00;;;;;;5057503;28;20516;-80
2023/06/25 02:25:23;;;;;;;7.60;6.07;;;19.20;1.00;;;;;;5054434;28;20822;-81
2023/06/25 02:27:50;;;;;;;8.60;5.40;;;19.20;1.00;;;;;;5063402;28;20519;-79
2023/06/25 02:30:17;;;;;;;6.83;5.23;;;19.20;1.00;;;;;;5057604;28;20470;-80
2023/06/25 02:32:45;;;;;;;7.00;5.47;;;19.20;1.00;;;;;;5057252;28;20489;-80
2023/06/25 02:35:12;;;;;;;6.80;5.13;;;19.20;1.00;;;;;;5060686;28;20505;-77
2023/06/25 02:37:39;;;;;;;9.37;5.77;;;19.10;1.00;;;;;;5050691;28;20547;-79
2023/06/25 02:40:07;;;;;;;10.90;5.23;;;19.10;1.00;;;;;;5059059;28;20464;-81
2023/06/25 02:42:34;;;;;;;7.70;5.37;;;19.00;1.00;;;;;;5055337;28;20456;-81
2023/06/25 02:45:01;;;;;;;7.57;5.40;;;19.00;1.00;;;;;;5057506;28;20448;-81
2023/06/25 02:47:27;;;;;;;7.63;6.10;;;19.00;1.00;;;;;;5059069;28;20452;-79
2023/06/25 02:49:56;;;;;;;6.53;5.40;;;19.00;1.00;;;;;;5055871;28;20449;-80
2023/06/25 02:52:22;;;;;;;7.73;5.90;;;19.00;1.00;;;;;;5063263;28;20480;-80
2023/06/25 02:54:49;;;;;;;7.37;5.00;;;19.00;1.00;;;;;;5065872;28;20451;-79
2023/06/25 02:57:16;;;;;;;7.47;5.50;;;18.90;1.00;;;;;;5061778;28;20453;-80
2023/06/25 02:59:43;;;;;;;7.33;5.60;;;18.90;1.00;;;;;;5045869;28;20521;-80
2023/06/25 03:02:10;;;;;;;7.73;5.83;;;18.90;1.00;;;;;;5045178;28;22765;-79
2023/06/25 03:04:37;;;;;;;7.87;5.20;;;18.90;1.00;;;;;;5054231;28;20899;-80
2023/06/25 03:07:09;;;;;;;6.80;5.90;;;18.90;1.00;;;;;;5044393;28;20506;-80
2023/06/25 03:09:38;;;;;;;6.23;5.20;;;18.80;1.00;;;;;;5064916;28;20451;-80
2023/06/25 03:12:06;;;;;;;7.57;4.90;;;18.80;1.00;;;;;;5065007;28;20497;-80
2023/06/25 03:14:34;;;;;;;6.83;5.50;;;18.80;1.00;;;;;;5065704;28;20448;-81
2023/06/25 03:17:01;;;;;;;6.80;4.87;;;18.80;1.00;;;;;;5060575;28;20465;-80
2023/06/25 03:19:27;;;;;;;7.60;5.73;;;18.80;1.00;;;;;;5062891;28;20458;-80
2023/06/25 03:21:54;;;;;;;8.17;6.10;;;18.80;1.00;;;;;;5054081;28;20472;-79
2023/06/25 03:24:22;;;;;;;5.50;4.93;;;18.70;1.00;;;;;;5059181;28;20449;-80
2023/06/25 03:26:49;;;;;;;6.83;6.13;;;18.70;1.00;;;;;;5058940;28;20460;-80
2023/06/25 03:29:17;;;;;;;7.50;5.90;;;18.70;1.00;;;;;;5052058;28;20463;-80
2023/06/25 03:31:44;;;;;;;6.37;5.00;;;18.70;1.00;;;;;;5045874;28;20493;-81
2023/06/25 03:34:10;;;;;;;6.70;5.17;;;18.70;1.00;;;;;;5054014;28;20466;-81
2023/06/25 03:36:37;;;;;;;7.33;5.63;;;18.70;1.00;;;;;;5044903;28;20471;-80
2023/06/25 03:39:05;;;;;;;6.63;5.87;;;18.70;1.00;;;;;;5043910;28;20460;-80
2023/06/25 03:41:33;;;;;;;6.83;5.53;;;18.70;1.00;;;;;;5041483;28;20508;-79
2023/06/25 03:44:01;;;;;;;8.67;6.10;;;18.70;1.00;;;;;;5041779;28;20448;-80
2023/06/25 03:46:27;;;;;;;8.70;6.00;;;18.70;1.00;;;;;;5042880;28;20519;-80
2023/06/25 03:48:54;;;;;;;7.17;6.17;;;18.70;1.00;;;;;;5044251;28;20540;-79
2023/06/25 03:51:21;;;;;;;7.17;6.47;;;18.70;1.00;;;;;;5052368;28;20473;-79
2023/06/25 03:53:49;;;;;;;7.33;6.40;;;18.70;1.00;;;;;;5041643;28;20584;-79
2023/06/25 03:56:16;;;;;;;9.67;6.47;;;18.70;1.00;;;;;;5040075;28;20459;-79
2023/06/25 03:58:44;;;;;;;6.87;6.17;;;18.70;1.00;;;;;;5041995;28;20448;-80
2023/06/25 04:01:11;;;;;;;6.40;5.33;;;18.80;1.00;;;;;;5041729;28;20469;-81
2023/06/25 04:03:38;;;;;;;7.20;6.17;;;18.80;1.00;;;;;;5043546;28;20452;-81
2023/06/25 04:06:05;;;;;;;8.07;6.13;;;18.80;1.00;;;;;;5043824;28;20546;-81
2023/06/25 04:08:32;;;;;;;6.53;5.17;;;18.80;1.00;;;;;;5057314;28;20486;-81
2023/06/25 04:10:59;;;;;;;6.50;5.80;;;18.90;1.00;;;;;;5062956;28;20991;-79
2023/06/25 04:13:25;;;;;;;7.50;5.70;;;18.90;1.00;;;;;;5063431;28;20865;-80
2023/06/25 04:15:53;;;;;;;6.00;5.40;;;18.90;1.00;;;;;;5061960;28;20531;-81
2023/06/25 04:18:20;;;;;;;7.70;6.90;;;19.00;1.00;;;;;;5051805;28;20524;-81
2023/06/25 04:20:47;;;;;;;10.20;6.00;;;19.00;1.00;;;;;;5040058;28;20487;-79
2023/06/25 04:23:14;;;;;;;12.23;6.23;;;19.10;1.00;;;;;;5041247;28;20888;-81
2023/06/25 04:25:43;;;;;;;7.30;5.13;;;19.10;1.00;;;;;;5052749;28;20456;-80
2023/06/25 04:28:14;;;;;;;6.33;5.67;;;19.10;1.00;;;;;;5042687;28;20480;-81
2023/06/25 04:30:41;;;;;;;7.10;5.63;;;19.20;1.00;;;;;;5047632;28;20483;-81
2023/06/25 04:33:11;;;;;;;6.17;4.70;;;19.20;1.00;;;;;;5061626;28;20499;-80
2023/06/25 04:35:38;;;;;;;7.70;5.43;;;19.30;1.00;;;;;;5061355;28;20516;-79
2023/06/25 04:38:05;;;;;;;6.43;5.60;;;19.30;1.00;;;;;;5060491;28;20546;-82
2023/06/25 04:40:32;;;;;;;7.07;5.80;;;19.40;1.00;;;;;;5062095;28;20487;-80
2023/06/25 04:42:58;;;;;;;6.37;5.77;;;19.40;1.00;;;;;;5063684;28;20471;-80
2023/06/25 04:45:26;;;;;;;7.50;5.73;;;19.50;1.00;;;;;;5049784;28;20776;-80
2023/06/25 04:47:52;;;;;;;8.80;5.93;;;19.50;1.00;;;;;;5048162;28;20855;-79
2023/06/25 04:50:21;;;;;;;8.03;5.17;;;19.60;1.00;;;;;;5060885;28;20495;-80
2023/06/25 04:52:48;;;;;;;7.40;5.23;;;19.60;1.00;;;;;;5058779;28;20476;-80
2023/06/25 04:55:14;;;;;;;6.10;5.50;;;19.70;1.00;;;;;;5057088;28;20443;-79
2023/06/25 04:57:41;;;;;;;8.80;5.27;;;19.70;1.00;;;;;;5053012;28;20461;-82
2023/06/25 05:00:09;;;;;;;6.80;6.10;;;19.80;1.00;;;;;;5037769;28;20456;-82
2023/06/25 05:02:36;;;;;;;7.80;6.23;;;19.80;1.00;;;;;;5057695;28;20487;-80
2023/06/25 05:05:03;;;;;;;6.53;5.60;;;19.80;1.00;;;;;;5056350;28;21109;-80
2023/06/25 05:07:31;;;;;;;6.20;5.40;;;19.90;1.00;;;;;;5056825;28;20452;-80
2023/06/25 05:09:58;;;;;;;6.20;5.50;;;20.00;1.00;;;;;;5055212;28;20458;-80
2023/06/25 05:12:25;;;;;;;6.67;5.47;;;20.10;1.00;;;;;;5051124;28;20490;-80
2023/06/25 05:14:52;;;;;;;6.03;5.20;;;20.10;1.00;;;;;;5043299;28;20506;-81
2023/06/25 05:17:18;;;;;;;6.57;5.87;;;20.20;1.00;;;;;;5039449;28;20909;-82
2023/06/25 05:19:45;;;;;;;7.10;5.60;;;20.30;1.00;;;;;;5037561;28;20460;-82
2023/06/25 05:22:12;;;;;;;6.57;5.87;;;20.40;1.00;;;;;;5037902;28;20529;-80
2023/06/25 05:24:40;;;;;;;8.33;5.70;;;20.40;1.00;;;;;;5037457;28;20975;-80
2023/06/25 05:27:07;;;;;;;6.60;5.90;;;20.50;1.00;;;;;;5044579;28;20542;-80
2023/06/25 05:29:34;;;;;;;7.30;5.67;;;20.50;1.00;;;;;;5057857;28;20551;-80
2023/06/25 05:32:01;;;;;;;7.57;5.63;;;20.60;1.00;;;;;;5058151;28;20524;-81
2023/06/25 05:34:28;;;;;;;9.23;5.97;;;20.60;99.90;;;;;;5055154;28;20484;-80
2023/06/25 05:36:54;;;;;;;6.33;5.70;;;20.70;99.90;;;;;;5056753;28;20444;-80
2023/06/25 05:39:22;;;;;;;6.00;5.30;;;20.80;1.00;;;;;;5057188;28;20456;-80
2023/06/25 05:41:50;;;;;;;6.97;6.27;;;20.80;1.00;;;;;;5051877;28;20488;-83
2023/06/25 05:44:17;;;;;;;6.70;4.50;;;20.90;99.90;;;;;;5040479;28;20474;-79
2023/06/25 05:46:44;;;;;;;5.87;5.27;;;20.90;99.90;;;;;;5040665;28;20474;-83
2023/06/25 05:49:11;;;;;;;6.20;5.27;;;21.00;1.00;;;;;;5045964;28;20455;-83
2023/06/25 05:51:38;;;;;;;8.30;5.40;;;21.10;1.00;;;;;;5056022;28;20468;-82
2023/06/25 05:54:05;;;;;;;7.10;6.10;;;21.10;99.90;;;;;;5055040;28;20567;-82
2023/06/25 05:56:32;;;;;;;6.17;5.57;;;21.20;99.90;;;;;;5045943;28;20448;-80
2023/06/25 05:59:00;;;;;;;6.63;5.57;;;21.30;99.90;;;;;;5040036;28;20456;-82
2023/06/25 06:01:26;;;;;;;6.30;5.50;;;21.40;99.90;;;;;;5039846;28;20559;-81
2023/06/25 06:03:53;;;;;;;6.07;5.43;;;21.40;99.90;;;;;;5059372;28;20483;-83
2023/06/25 06:06:20;;;;;;;6.23;5.37;;;21.50;99.90;;;;;;5047935;28;20449;-80
2023/06/25 06:08:47;;;;;;;6.00;5.30;;;21.60;99.90;;;;;;5055847;28;20471;-81
2023/06/25 06:11:14;;;;;;;7.53;6.13;;;21.60;99.90;;;;;;5054497;28;20490;-82
2023/06/25 06:13:41;;;;;;;6.50;5.80;;;21.70;99.90;;;;;;5062185;28;20487;-83
2023/06/25 06:16:09;;;;;;;5.77;4.93;;;21.80;99.90;;;;;;5061775;28;20515;-83
2023/06/25 06:18:36;;;;;;;6.50;5.67;;;21.80;99.90;;;;;;5056684;28;20554;-83
2023/06/25 06:21:03;;;;;;;6.43;5.30;;;21.90;99.90;;;;;;5062810;28;20495;-83
2023/06/25 06:23:32;;;;;;;5.33;4.80;;;22.00;1.00;;;;;;5066430;28;20503;-86
2023/06/25 06:25:59;;;;;;;6.20;5.33;;;22.10;1.00;;;;;;5055297;28;20464;-81
2023/06/25 06:28:25;;;;;;;5.63;4.77;;;22.10;1.00;;;;;;5045704;28;20448;-84
2023/06/25 06:30:52;;;;;;;7.17;5.23;;;22.20;1.00;;;;;;5049460;28;20566;-85
2023/06/25 06:33:20;;;;;;;6.30;5.37;;;22.30;1.00;;;;;;5042301;28;20491;-81
2023/06/25 06:35:47;;;;;;;10.10;5.40;;;22.40;1.00;;;;;;5044041;28;20525;-83
2023/06/25 06:38:14;;;;;;;6.83;6.13;;;22.40;99.90;;;;;;5059808;28;20447;-84
2023/06/25 06:40:41;;;;;;;6.77;6.00;;;22.50;99.90;;;;;;5059853;28;20499;-84
2023/06/25 06:43:08;;;;;;;7.23;5.13;;;22.60;99.90;;;;;;5058027;28;20516;-82
2023/06/25 06:45:34;;;;;;;5.67;5.10;;;22.60;95.90;;;;;;5046026;28;20491;-83
2023/06/25 06:48:01;;;;;;;5.63;5.03;;;22.80;1.00;;;;;;5041072;28;20457;-83
2023/06/25 06:50:29;;;;;;;6.20;5.27;;;22.90;99.90;;;;;;5041507;28;20473;-83
2023/06/25 06:52:56;;;;;;;6.90;5.17;;;23.00;1.00;;;;;;5053025;28;20490;-83
2023/06/25 06:55:23;;;;;;;5.63;5.03;;;23.10;1.00;;;;;;5047623;28;20535;-84
2023/06/25 06:57:50;;;;;;;8.40;5.40;;;23.20;99.90;;;;;;5048611;28;21012;-84
2023/06/25 07:00:18;;;;;;;5.73;4.87;;;23.30;99.90;;;;;;5054458;28;20472;-84
2023/06/25 07:02:45;;;;;;;5.93;5.03;;;23.40;99.90;;;;;;5056324;28;20467;-84
2023/06/25 07:05:13;;;;;;;5.20;4.53;;;23.50;99.90;;;;;;5047280;28;20474;-82
2023/06/25 07:07:41;;;;;;;7.13;5.30;;;23.50;99.90;;;;;;5040550;28;20475;-82
2023/06/25 07:10:09;;;;;;;6.10;5.40;;;23.60;99.90;;;;;;5039714;28;20499;-86
2023/06/25 07:12:35;;;;;;;5.83;4.70;;;23.70;99.90;;;;;;5058521;28;21064;-83
2023/06/25 07:15:02;;;;;;;5.43;4.43;;;23.70;99.90;;;;;;5060206;28;20518;-86
2023/06/25 07:17:29;;;;;;;7.10;4.70;;;23.90;99.90;;;;;;5055122;28;20452;-83
2023/06/25 07:19:56;;;;;;;5.83;5.07;;;23.90;1.00;;;;;;5060266;28;20456;-84
2023/06/25 07:22:23;;;;;;;5.60;4.80;;;24.00;1.00;;;;;;5054993;28;20528;-84
2023/06/25 07:24:51;;;;;;;4.83;4.23;;;24.10;1.00;;;;;;5057538;28;20446;-85
2023/06/25 07:27:18;;;;;;;5.47;4.40;;;24.20;1.00;;;;;;5045852;28;20524;-85
2023/06/25 07:29:44;;;;;;;5.30;4.53;;;24.30;1.00;;;;;;5040911;28;20433;-84
2023/06/25 07:32:11;;;;;;;7.83;5.33;;;24.40;1.00;;;;;;5054981;28;20865;-86
2023/06/25 07:34:38;;;;;;;7.13;4.70;;;24.40;1.00;;;;;;5060739;28;20563;-82
2023/06/25 07:37:06;;;;;;;5.43;4.93;;;24.50;1.00;;;;;;5043968;28;20457;-85
2023/06/25 07:39:33;;;;;;;6.57;4.60;;;24.60;1.00;;;;;;5055639;28;20476;-86
2023/06/25 07:42:02;;;;;;;5.70;5.10;;;24.70;1.00;;;;;;5053085;28;20497;-82
2023/06/25 07:44:29;;;;;;;5.60;4.50;;;24.80;1.00;;;;;;5059570;28;20450;-83
2023/06/25 07:46:56;;;;;;;6.03;5.43;;;24.90;1.00;;;;;;5059782;28;20466;-85
2023/06/25 07:49:22;;;;;;;5.43;4.60;;;25.00;1.00;;;;;;5043052;28;20453;-85
2023/06/25 07:51:51;;;;;;;5.40;4.90;;;25.00;1.00;;;;;;5051710;28;20583;-83
2023/06/25 07:54:18;;;;;;;5.00;4.03;;;25.20;1.00;;;;;;5046281;28;20488;-86
2023/06/25 07:56:45;;;;;;;5.70;4.60;;;25.30;1.00;;;;;;5045131;28;20463;-84
2023/06/25 07:59:14;;;;;;;4.50;3.87;;;25.30;1.00;;;;;;5047890;28;21035;-85
2023/06/25 08:01:41;;;;;;;6.30;4.30;;;25.40;1.00;;;;;;5054726;28;20483;-84
2023/06/25 08:04:08;;;;;;;6.97;4.70;;;25.50;1.00;;;;;;5057641;28;20447;-84
2023/06/25 08:06:35;;;;;;;6.13;4.70;;;25.60;1.00;;;;;;5052901;28;20471;-83
2023/06/25 08:09:02;;;;;;;5.33;4.40;;;25.70;1.00;;;;;;5053524;28;20474;-84
2023/06/25 08:11:29;;;;;;;4.50;4.10;;;25.80;1.00;;;;;;5056151;28;20479;-84
2023/06/25 08:13:56;;;;;;;6.70;3.83;;;25.90;1.00;;;;;;5052545;28;20853;-84
2023/06/25 08:16:24;;;;;;;6.63;4.53;;;26.00;1.00;;;;;;5053215;28;20471;-85
2023/06/25 08:18:51;;;;;;;6.30;5.13;;;26.20;1.00;;;;;;5047676;28;20460;-85
2023/06/25 08:21:18;;;;;;;5.70;4.43;;;26.30;1.00;;;;;;5046159;28;21023;-84
2023/06/25 08:23:44;;;;;;;5.10;3.97;;;26.40;1.00;;;;;;5045242;28;20484;-84
2023/06/25 08:26:15;;;;;;;4.70;4.10;;;26.50;99.90;;;;;;5049032;28;20512;-86
2023/06/25 08:28:42;;;;;;;5.10;4.57;;;26.50;99.90;;;;;;5051175;28;20448;-83
2023/06/25 08:31:09;;;;;;;5.00;4.03;;;26.60;99.90;;;;;;5048593;28;20587;-84
2023/06/25 08:33:37;;;;;;;5.00;4.47;;;26.70;99.90;;;;;;5049275;28;20494;-85
2023/06/25 08:36:05;;;;;;;5.90;4.33;;;26.80;99.90;;;;;;5049883;28;20479;-84
2023/06/25 08:38:32;;;;;;;6.10;4.40;;;27.00;99.90;;;;;;5053334;28;20462;-85
2023/06/25 08:41:00;;;;;;;6.23;4.20;;;27.00;99.90;;;;;;5054510;28;20479;-84
2023/06/25 08:43:27;;;;;;;5.10;4.47;;;27.20;99.90;;;;;;5045775;28;20471;-84
2023/06/25 08:45:53;;;;;;;5.07;3.63;;;27.30;99.90;;;;;;5047525;28;20556;-85
2023/06/25 08:48:25;;;;;;;4.50;4.03;;;27.50;99.90;;;;;;5058030;28;20432;-85
2023/06/25 08:50:56;;;;;;;5.27;3.93;;;27.50;99.90;;;;;;5058873;28;20561;-85
2023/06/25 08:53:25;;;;;;;5.00;4.10;;;27.80;99.90;;;;;;5045570;28;20517;-86
2023/06/25 08:55:54;;;;;;;4.70;4.20;;;28.00;99.90;;;;;;5046739;28;21044;-85
2023/06/25 08:58:21;;;;;;;4.23;3.20;;;28.10;99.90;;;;;;5057652;28;20455;-86
2023/06/25 09:00:48;;;;;;;5.23;4.40;;;28.30;99.90;;;;;;5051637;28;20473;-84
2023/06/25 09:03:17;;;;;;;4.83;4.33;;;28.50;99.90;;;;;;5052878;28;20448;-84
2023/06/25 09:05:54;;;;;;;5.37;4.50;;;28.50;99.90;;;;;;5045117;28;20452;-86
2023/06/25 09:08:21;;;;;;;4.70;3.90;;;28.70;99.90;;;;;;5067933;28;20428;-83
2023/06/25 09:10:52;;;;;;;7.20;4.60;;;28.60;99.90;;;;;;5062460;28;20452;-87
2023/06/25 09:13:23;;;;;;;4.93;4.43;;;28.70;99.90;;;;;;5057744;28;20455;-85
2023/06/25 09:15:50;;;;;;;7.33;4.40;;;28.90;99.90;;;;;;5046387;28;20904;-85
2023/06/25 09:18:21;;;;;;;4.40;4.00;;;28.80;99.90;;;;;;5046795;28;20733;-85
2023/06/25 09:20:48;;;;;;;4.80;4.30;;;28.90;99.90;;;;;;5045925;28;20477;-85
2023/06/25 09:23:21;;;;;;;5.03;4.53;;;29.00;99.90;;;;;;5052762;28;20444;-83
2023/06/25 09:25:48;;;;;;;5.20;4.70;;;29.30;99.90;;;;;;5046887;28;20433;-84
2023/06/25 09:28:15;;;;;;;4.73;3.93;;;29.40;99.90;;;;;;5053106;28;20448;-84
2023/06/25 09:30:43;;;;;;;4.20;3.80;;;29.60;99.90;;;;;;5058386;28;20494;-82
2023/06/25 09:33:12;;;;;;;6.67;4.70;;;29.90;99.90;;;;;;5050179;28;20523;-85
2023/06/25 09:35:39;;;;;;;4.50;4.00;;;29.70;99.90;;;;;;5050411;28;21002;-84
2023/06/25 09:38:06;;;;;;;4.43;3.80;;;30.00;99.90;;;;;;5050507;28;20452;-85
2023/06/25 09:40:34;;;;;;;4.60;4.10;;;30.20;99.90;;;;;;5042356;28;20540;-86
2023/06/25 09:43:05;;;;;;;4.00;3.60;;;30.30;99.90;;;;;;5037654;28;20532;-85
2023/06/25 09:45:32;;;;;;;4.97;4.50;;;30.70;99.90;;;;;;5046376;28;20448;-85
2023/06/25 09:48:02;;;;;;;4.43;3.80;;;30.90;99.90;;;;;;5051953;28;20478;-85
2023/06/25 09:50:35;;;;;;;4.50;4.10;;;31.20;99.90;;;;;;5047364;28;20476;-85
2023/06/25 09:53:04;;;;;;;4.20;3.80;;;31.50;99.90;;;;;;5037584;28;20986;-85
2023/06/25 09:55:37;;;;;;;4.90;4.40;;;31.70;99.90;;;;;;5037126;28;20732;-85
2023/06/25 09:58:05;;;;;;;5.00;4.50;;;31.90;99.90;;;;;;5053667;28;21019;-84
2023/06/25 10:00:33;;;;;;;4.93;4.27;;;32.60;99.90;;;;;;5057095;28;20478;-85
2023/06/25 10:03:00;;;;;;;5.23;3.50;;;33.00;99.90;;;;;;5056155;28;20839;-85
2023/06/25 10:05:27;;;;;;;5.43;4.17;;;33.30;99.90;;;;;;5055318;28;20448;-83
2023/06/25 10:07:54;;;;;;;4.30;3.80;;;33.40;99.90;;;;;;5049607;28;20463;-85
2023/06/25 10:10:22;;;;;;;5.80;4.70;;;33.50;99.90;;;;;;5054687;28;20469;-85
2023/06/25 10:12:50;;;;;;;4.60;4.20;;;33.20;99.90;;;;;;5043497;28;20447;-84
2023/06/25 10:15:28;;;;;;;4.30;3.90;;;33.30;99.90;;;;;;5053202;28;20490;-86
2023/06/25 10:17:55;;;;;;;5.00;4.50;;;33.40;99.90;;;;;;5043014;28;20452;-84
2023/06/25 10:20:27;;;;;;;5.30;4.60;;;33.10;99.90;;;;;;5046116;28;20477;-84
2023/06/25 10:23:09;;;;;;;5.27;4.60;;;33.00;99.90;;;;;;5037914;28;20856;-84
2023/06/25 10:25:38;;;;;;;4.50;4.07;;;32.90;99.90;;;;;;5037921;28;20937;-83
2023/06/25 10:28:10;;;;;;;4.80;4.37;;;33.00;99.90;;;;;;5038070;28;20467;-85
2023/06/25 10:30:39;;;;;;;5.17;4.40;;;33.40;99.90;;;;;;5039097;28;20484;-85
2023/06/25 10:33:06;;;;;;;4.80;4.30;;;34.00;99.90;;;;;;5050444;28;20462;-83
2023/06/25 10:35:39;;;;;;;5.30;4.20;;;34.20;99.90;;;;;;5043541;28;20480;-84
2023/06/25 10:38:06;;;;;;;5.30;4.80;;;34.40;99.90;;;;;;5055843;28;20462;-83
2023/06/25 10:40:34;;;;;;;4.30;3.90;;;34.00;99.90;;;;;;5060958;28;20510;-84
2023/06/25 10:43:01;;;;;;;4.80;4.30;;;34.10;99.90;;;;;;5048386;28;20460;-83
2023/06/25 10:45:29;;;;;;;5.20;4.10;;;33.70;99.90;;;;;;5040556;28;20452;-83
2023/06/25 10:48:11;;;;;;;7.67;4.23;;;33.70;99.90;;;;;;5053811;28;20544;-83
2023/06/25 10:50:38;;;;;;;5.40;4.33;;;33.80;99.90;;;;;;5045448;28;20472;-82
2023/06/25 10:53:10;;;;;;;4.47;4.07;;;34.00;99.90;;;;;;5056606;28;20459;-81
2023/06/25 10:55:38;;;;;;;5.23;3.97;;;34.30;99.90;;;;;;5052943;28;20535;-85
2023/06/25 10:58:05;;;;;;;4.87;4.30;;;34.40;99.90;;;;;;5052884;28;20468;-85
2023/06/25 11:00:33;;;;;;;5.40;4.50;;;34.60;99.90;;;;;;5060498;28;20482;-85
2023/06/25 11:03:00;;;;;;;4.90;4.40;;;34.50;99.90;;;;;;5048586;28;20999;-85
2023/06/25 11:05:34;;;;;;;5.27;4.50;;;34.60;99.90;;;;;;5048340;28;20457;-84
2023/06/25 11:08:02;;;;;;;5.20;4.70;;;34.30;99.90;;;;;;5044637;28;20975;-85
2023/06/25 11:10:30;;;;;;;5.10;4.60;;;34.20;99.90;;;;;;5040170;28;20487;-85
2023/06/25 11:12:57;;;;;;;5.53;4.67;;;34.30;99.90;;;;;;5046068;28;20459;-83
2023/06/25 11:15:24;;;;;;;5.13;4.63;;;34.50;99.90;;;;;;5047443;28;20488;-82
2023/06/25 11:17:53;;;;;;;5.50;4.23;;;34.80;99.90;;;;;;5046156;28;20480;-82
2023/06/25 11:20:22;;;;;;;8.20;5.47;;;34.90;99.90;;;;;;5049501;28;20560;-83
2023/06/25 11:22:49;;;;;;;6.67;4.30;;;34.70;99.90;;;;;;5052783;28;20468;-82
2023/06/25 11:25:17;;;;;;;5.00;4.33;;;34.60;99.90;;;;;;5054166;28;20519;-83
2023/06/25 11:27:44;;;;;;;4.60;3.97;;;34.90;99.90;;;;;;5051538;28;20483;-83
2023/06/25 11:30:11;;;;;;;4.40;4.00;;;35.00;99.90;;;;;;5052162;28;20539;-84
2023/06/25 11:32:39;;;;;;;5.33;4.47;;;34.90;99.90;;;;;;5051388;28;20462;-84
2023/06/25 11:35:13;;;;;;;5.03;4.53;;;35.00;99.90;;;;;;5045156;28;20499;-82
2023/06/25 11:37:44;;;;;;;5.30;4.33;;;35.20;99.90;;;;;;5056204;28;20452;-82
2023/06/25 11:40:21;;;;;;;4.43;4.03;;;35.60;99.90;;;;;;5059677;28;20529;-82
2023/06/25 11:42:48;;;;;;;4.70;4.20;;;35.60;99.90;;;;;;5039492;28;20460;-83
2023/06/25 11:45:15;;;;;;;4.17;3.77;;;35.60;99.90;;;;;;5040380;28;20976;-80
2023/06/25 11:47:45;;;;;;;5.03;4.20;;;35.80;99.90;;;;;;5050820;28;20951;-85
2023/06/25 11:50:13;;;;;;;4.73;4.17;;;36.10;99.90;;;;;;5059388;28;20462;-83
2023/06/25 11:52:40;;;;;;;4.90;4.40;;;36.00;99.90;;;;;;5052410;28;20449;-84
2023/06/25 11:55:08;;;;;;;4.30;3.80;;;35.90;99.90;;;;;;5052593;28;20586;-83
2023/06/25 11:57:35;;;;;;;4.50;4.10;;;35.90;99.90;;;;;;5059126;28;20446;-83
2023/06/25 12:00:02;;;;;;;4.43;4.03;;;36.00;99.90;;;;;;5053880;28;20470;-82
2023/06/25 12:02:29;;;;;;;4.50;4.07;;;36.00;99.90;;;;;;5048617;28;20999;-84
2023/06/25 12:04:58;;;;;;;4.73;4.33;;;36.00;99.90;;;;;;5049628;28;20531;-84
2023/06/25 12:07:26;;;;;;;6.40;4.07;;;35.90;99.90;;;;;;5052832;28;20986;-85
2023/06/25 12:09:53;;;;;;;4.70;4.03;;;36.20;99.90;;;;;;5050757;28;20553;-84
2023/06/25 12:12:20;;;;;;;5.70;4.33;;;36.30;99.90;;;;;;5052466;28;20550;-82
2023/06/25 12:14:47;;;;;;;4.93;3.83;;;36.30;99.90;;;;;;5048613;28;20484;-86
2023/06/25 12:17:14;;;;;;;5.13;4.63;;;36.60;99.90;;;;;;5048290;28;20467;-83
2023/06/25 12:19:41;;;;;;;3.93;3.53;;;36.60;99.90;;;;;;5057068;28;20448;-83
2023/06/25 12:22:08;;;;;;;4.90;4.10;;;36.60;99.90;;;;;;5048512;28;20477;-85
2023/06/25 12:24:37;;;;;;;5.27;4.00;;;36.40;99.90;;;;;;5038191;28;20845;-84
2023/06/25 12:27:05;;;;;;;4.80;4.07;;;36.60;99.90;;;;;;5037487;28;20452;-83
2023/06/25 12:29:32;;;;;;;4.83;4.23;;;36.90;99.90;;;;;;5056941;28;20452;-82
2023/06/25 12:31:59;;;;;;;7.10;5.13;;;37.00;99.90;;;;;;5057978;28;20922;-81
2023/06/25 12:34:26;;;;;;;5.03;4.03;;;36.90;99.90;;;;;;5057708;28;20454;-83
2023/06/25 12:36:52;;;;;;;5.10;4.60;;;36.60;99.90;;;;;;5058967;28;20503;-82
2023/06/25 12:39:19;;;;;;;8.73;4.17;;;36.40;99.90;;;;;;5040801;28;20448;-82
2023/06/25 12:41:47;;;;;;;4.30;3.90;;;36.30;99.90;;;;;;5039217;28;20469;-82
2023/06/25 12:44:14;;;;;;;5.13;4.50;;;36.20;99.90;;;;;;5038997;28;20516;-84
2023/06/25 12:46:41;;;;;;;6.30;4.57;;;36.00;99.90;;;;;;5038225;28;20531;-83
2023/06/25 12:49:08;;;;;;;6.40;4.20;;;36.30;99.90;;;;;;5053890;28;20459;-84
2023/06/25 12:51:34;;;;;;;4.50;4.10;;;36.50;99.90;;;;;;5058207;28;20562;-85
2023/06/25 12:54:02;;;;;;;4.67;4.23;;;36.80;99.90;;;;;;5057862;28;20599;-83